createdAt,value
2022-07-28T00:02:49.872Z,0.0
2022-07-28T00:07:50.849Z,0.0
2022-07-28T00:12:51.766Z,0.0
2022-07-28T00:17:52.700Z,0.0
2022-07-28T00:22:53.641Z,0.0
2022-07-28T00:33:00.128Z,0.0
2022-07-28T00:43:01.646Z,0.0
2022-07-28T00:48:02.540Z,0.0
2022-07-28T00:53:03.491Z,0.0
2022-07-28T00:58:05.722Z,0.0
2022-07-28T01:03:06.697Z,0.0
2022-07-28T01:08:07.707Z,0.0
2022-07-28T01:13:08.664Z,0.0
2022-07-28T01:18:09.587Z,0.0
2022-07-28T01:23:10.496Z,0.0
2022-07-28T01:28:11.537Z,0.0
2022-07-28T01:33:12.587Z,0.0
2022-07-28T01:38:13.551Z,0.0
2022-07-28T01:43:14.443Z,0.0
2022-07-28T01:48:15.394Z,0.0
2022-07-28T01:53:16.339Z,0.0
2022-07-28T01:58:17.321Z,0.0
2022-07-28T02:03:18.235Z,0.0
2022-07-28T02:08:19.148Z,0.0
2022-07-28T02:13:20.080Z,0.0
2022-07-28T02:18:21.033Z,0.0
2022-07-28T02:23:22.014Z,0.0
2022-07-28T02:28:22.997Z,0.0
2022-07-28T02:33:29.574Z,0.0
2022-07-28T02:39:00.106Z,0.0
2022-07-28T02:44:01.075Z,0.0
2022-07-28T02:49:02.241Z,0.0
2022-07-28T02:54:03.252Z,0.5333
2022-07-28T02:59:04.157Z,0.8296
2022-07-28T03:04:05.081Z,3.85445
2022-07-28T03:09:05.987Z,2.4888
2022-07-28T03:14:08.562Z,3.67395
2022-07-28T03:19:09.508Z,7.4693
2022-07-28T03:24:10.749Z,13.463
2022-07-28T03:29:11.857Z,18.66375
2022-07-28T03:34:13.079Z,26.98115
2022-07-28T03:39:14.226Z,31.2045
2022-07-28T03:44:15.502Z,36.5897
2022-07-28T03:49:29.713Z,48.39265
2022-07-28T03:54:30.636Z,57.07895
2022-07-28T03:59:31.560Z,64.78785
2022-07-28T04:04:32.508Z,72.49675
2022-07-28T04:09:33.416Z,77.089
2022-07-28T04:14:34.641Z,78.74905
2022-07-28T04:19:35.586Z,83.7102
2022-07-28T04:24:36.860Z,87.69395
2022-07-28T04:29:37.786Z,92.6551
2022-07-28T04:34:39.559Z,94.4996
2022-07-28T04:39:40.477Z,89.5023
2022-07-28T04:44:41.401Z,93.85495
2022-07-28T04:49:42.344Z,88.24915
2022-07-28T04:54:43.260Z,85.94445
2022-07-28T04:59:44.209Z,86.575
2022-07-28T05:04:49.364Z,92.79695
2022-07-28T05:09:50.376Z,101.9817
2022-07-28T05:14:51.264Z,113.4182
2022-07-28T05:19:52.417Z,119.64015
2022-07-28T05:24:53.345Z,124.38075
2022-07-28T05:29:54.262Z,140.854
2022-07-28T05:34:55.217Z,159.81605
2022-07-28T05:39:56.118Z,176.40795
2022-07-28T05:44:57.043Z,255.043
2022-07-28T05:49:57.975Z,1185.7937
2022-07-28T05:54:58.922Z,442.24215
2022-07-28T05:59:59.837Z,371.1487
2022-07-28T06:05:00.703Z,178.1269
2022-07-28T06:10:01.867Z,198.92585
2022-07-28T06:15:03.399Z,259.60465
2022-07-28T06:20:04.917Z,273.88595
2022-07-28T06:25:05.871Z,272.1671
2022-07-28T06:30:06.811Z,288.16675
2022-07-28T06:35:07.728Z,309.44015
2022-07-28T06:40:08.678Z,308.8479
2022-07-28T06:45:09.701Z,366.9792
2022-07-28T06:50:24.694Z,357.37985
2022-07-28T06:55:34.599Z,332.0774
2022-07-28T07:00:36.752Z,323.36685
2022-07-28T07:05:37.726Z,350.5659
2022-07-28T07:10:38.632Z,446.0776
2022-07-28T07:15:39.558Z,542.66315
2022-07-28T07:20:40.530Z,398.62345
2022-07-28T07:25:41.458Z,380.0756
2022-07-28T07:30:42.696Z,409.88115
2022-07-28T07:35:43.630Z,384.8753
2022-07-28T07:40:44.551Z,404.3117
2022-07-28T07:45:45.479Z,426.77035
2022-07-28T07:50:50.467Z,371.6619
2022-07-28T07:55:54.403Z,466.94625
2022-07-28T08:00:55.314Z,470.9175
2022-07-28T08:05:56.293Z,516.485
2022-07-28T08:10:58.445Z,503.50835
2022-07-28T08:15:59.733Z,390.9516
2022-07-28T08:21:00.734Z,473.46935
2022-07-28T08:26:06.769Z,472.8132
2022-07-28T08:31:07.895Z,527.56645
2022-07-28T08:36:09.402Z,573.1946
2022-07-28T08:41:10.681Z,557.0067
2022-07-28T08:46:12.011Z,690.58325
2022-07-28T08:51:13.058Z,765.18805
2022-07-28T08:56:14.015Z,622.08345
2022-07-28T09:01:20.074Z,535.09235
2022-07-28T09:06:21.093Z,453.9881
2022-07-28T09:11:24.753Z,439.8076
2022-07-28T09:16:25.740Z,612.6
2022-07-28T09:21:26.777Z,543.4476
2022-07-28T09:26:27.823Z,424.61095
2022-07-28T09:31:28.853Z,443.3634
2022-07-28T09:36:30.211Z,538.4703
2022-07-28T09:41:31.249Z,497.6426
2022-07-28T09:46:32.850Z,463.11745
2022-07-28T09:51:33.999Z,509.59145
2022-07-28T09:56:35.447Z,411.79075
2022-07-28T10:01:37.172Z,400.41555
2022-07-28T10:06:38.380Z,677.93965
2022-07-28T10:11:41.700Z,2581.12175
2022-07-28T10:16:42.935Z,916.23355
2022-07-28T10:21:43.930Z,741.7192
2022-07-28T10:26:44.855Z,758.48885
2022-07-28T10:31:45.779Z,707.11285
2022-07-28T10:36:46.739Z,465.8768
2022-07-28T10:41:47.685Z,649.4574
2022-07-28T10:46:48.644Z,434.5393
2022-07-28T10:52:06.381Z,438.87295
2022-07-28T10:57:10.037Z,502.22505
2022-07-28T11:02:11.104Z,744.8607
2022-07-28T11:07:12.718Z,760.5057
2022-07-28T11:12:13.658Z,648.568
2022-07-28T11:17:14.962Z,662.67005
2022-07-28T11:22:15.964Z,608.3903
2022-07-28T11:27:19.724Z,572.53985
2022-07-28T11:32:20.658Z,570.1101
2022-07-28T11:37:28.142Z,601.39795
2022-07-28T11:42:29.355Z,567.44335
2022-07-28T11:52:32.384Z,515.3571
2022-07-28T12:02:33.906Z,597.8428
2022-07-28T12:07:36.806Z,605.78375
2022-07-28T12:12:37.719Z,571.4733
2022-07-28T12:17:38.648Z,573.54705
2022-07-28T12:22:41.836Z,593.22095
2022-07-28T12:27:45.815Z,662.84965
2022-07-28T12:32:47.024Z,681.2787
2022-07-28T12:37:47.940Z,643.47165
2022-07-28T12:42:52.019Z,667.94485
2022-07-28T12:47:54.663Z,654.7302
2022-07-28T12:52:55.672Z,704.8621
2022-07-28T12:57:56.612Z,737.33535
2022-07-28T13:02:57.591Z,726.1953
2022-07-28T13:07:58.929Z,733.721
2022-07-28T13:13:02.907Z,716.7733
2022-07-28T13:18:03.866Z,724.359
2022-07-28T13:23:04.808Z,758.0767
2022-07-28T13:28:06.440Z,748.65475
2022-07-28T13:33:11.966Z,742.61085
2022-07-28T13:38:14.985Z,860.06045
2022-07-28T13:43:15.934Z,813.2462
2022-07-28T13:48:16.984Z,759.0841
2022-07-28T13:53:17.946Z,826.6397
2022-07-28T13:58:19.430Z,1156.6306
2022-07-28T14:03:26.325Z,1284.5254
2022-07-28T14:08:27.270Z,1240.9646
2022-07-28T14:13:28.228Z,1304.25785
2022-07-28T14:18:32.753Z,1304.44045
2022-07-28T14:23:33.705Z,1349.40085
2022-07-28T14:28:34.815Z,1363.0103
2022-07-28T14:33:35.727Z,1404.0991
2022-07-28T14:38:52.281Z,1418.5015
2022-07-28T14:43:54.268Z,1414.5539
2022-07-28T14:48:55.195Z,1410.7166
2022-07-28T14:53:56.174Z,1410.3667
2022-07-28T14:58:57.205Z,1133.9646
2022-07-28T15:03:58.202Z,1367.8783
2022-07-28T15:08:59.241Z,1211.15785
2022-07-28T15:14:00.291Z,752.15245
2022-07-28T15:19:01.421Z,703.02765
2022-07-28T15:24:02.557Z,721.516
2022-07-28T15:29:03.720Z,583.80235
2022-07-28T15:34:04.823Z,714.8199
2022-07-28T15:39:08.005Z,692.7169
2022-07-28T15:44:10.252Z,684.65805
2022-07-28T15:49:11.222Z,665.34025
2022-07-28T15:54:12.476Z,650.34825
2022-07-28T15:59:13.680Z,643.53375
2022-07-28T16:04:14.864Z,572.24725
2022-07-28T16:09:16.020Z,600.0983
2022-07-28T16:14:17.898Z,587.23945
2022-07-28T16:19:38.597Z,580.66195
2022-07-28T16:24:47.485Z,565.255
2022-07-28T16:29:48.438Z,522.5306
2022-07-28T16:39:52.946Z,450.5926
2022-07-28T16:44:53.910Z,438.20755
2022-07-28T16:49:54.842Z,426.94865
2022-07-28T16:54:55.786Z,387.36495
2022-07-28T16:59:56.757Z,356.018
2022-07-28T17:04:57.787Z,323.24875
2022-07-28T17:09:58.772Z,281.4725
2022-07-28T17:14:59.727Z,253.88575
2022-07-28T17:20:00.730Z,231.9926
2022-07-28T17:25:02.275Z,217.5338
2022-07-28T17:35:03.662Z,186.8808
2022-07-28T17:40:04.930Z,172.4784
2022-07-28T17:45:05.915Z,161.23925
2022-07-28T17:50:06.876Z,142.5732
2022-07-28T17:55:07.877Z,118.92955
2022-07-28T18:00:08.889Z,111.64085
2022-07-28T18:05:10.046Z,102.8707
2022-07-28T18:10:12.197Z,89.89335
2022-07-28T18:15:13.264Z,74.3087
2022-07-28T18:20:14.233Z,64.38465
2022-07-28T18:25:15.209Z,62.9452
2022-07-28T18:30:17.010Z,48.55995
2022-07-28T18:35:17.927Z,38.02915
2022-07-28T18:40:18.839Z,28.84465
2022-07-28T18:45:19.792Z,25.1005
2022-07-28T18:50:29.200Z,17.6312
2022-07-28T18:55:32.829Z,15.7867
2022-07-28T19:00:33.824Z,17.79665
2022-07-28T19:05:36.701Z,10.82555
2022-07-28T19:10:38.404Z,2.4888
2022-07-28T19:15:39.465Z,2.4888
2022-07-28T19:20:40.444Z,1.8962
2022-07-28T19:25:41.363Z,1.30365
2022-07-28T19:30:42.398Z,0.4148
2022-07-28T19:35:43.389Z,0.4148
2022-07-28T19:40:44.304Z,0.0
2022-07-28T19:45:45.343Z,0.0
2022-07-28T19:50:50.086Z,0.0
2022-07-28T19:55:52.268Z,0.0
2022-07-28T20:00:54.415Z,0.0
2022-07-28T20:11:00.233Z,0.0
2022-07-28T20:16:01.167Z,0.0
2022-07-28T20:21:02.152Z,0.0
2022-07-28T20:26:08.155Z,0.0
2022-07-28T20:31:14.931Z,0.0
2022-07-28T20:36:17.850Z,0.0
2022-07-28T20:41:18.769Z,0.0
2022-07-28T20:46:19.837Z,0.0
2022-07-28T20:51:20.783Z,0.0
2022-07-28T20:56:21.712Z,0.0
2022-07-28T21:01:23.033Z,0.0
2022-07-28T21:06:24.009Z,0.0
2022-07-28T21:11:25.559Z,0.0
2022-07-28T21:16:26.530Z,0.0
2022-07-28T21:21:27.467Z,0.0
2022-07-28T21:26:28.401Z,0.0
2022-07-28T21:31:29.333Z,0.0
2022-07-28T21:36:30.651Z,0.0
2022-07-28T21:46:32.015Z,0.0
2022-07-28T21:51:32.960Z,0.0
2022-07-28T22:01:34.501Z,0.0
2022-07-28T22:06:35.572Z,0.0
2022-07-28T22:11:36.565Z,0.0
2022-07-28T22:16:39.321Z,0.0
2022-07-28T22:21:40.348Z,0.0
2022-07-28T22:36:42.293Z,0.0
2022-07-28T22:52:24.213Z,0.0
2022-07-28T22:57:25.394Z,0.0
2022-07-28T23:02:26.385Z,0.0
2022-07-28T23:07:50.778Z,0.0
2022-07-28T23:12:56.173Z,0.0
2022-07-28T23:22:58.790Z,0.0
2022-07-28T23:27:59.702Z,0.0
2022-07-28T23:38:01.283Z,0.0
2022-07-28T23:43:02.557Z,0.0
2022-07-28T23:48:03.580Z,0.0
2022-07-28T23:53:04.597Z,0.0
2022-07-28T23:58:05.855Z,0.0
